createdAt,value
2018-12-06T00:00:59.971Z,99634.55
2018-12-06T00:04:09.083Z,99633.59
2018-12-06T00:10:47.130Z,99628.34
2018-12-06T00:14:12.573Z,99614.98
2018-12-06T00:17:21.753Z,99620.63
2018-12-06T00:20:12.067Z,99607.72
2018-12-06T00:23:02.317Z,99575.77
2018-12-06T00:26:11.449Z,99608.56
2018-12-06T00:29:20.617Z,99600.98
2018-12-06T00:32:29.741Z,99609.93
2018-12-06T00:35:39.243Z,99596.05
2018-12-06T00:38:48.420Z,99577.13
2018-12-06T00:46:12.523Z,99562.47
2018-12-06T00:53:41.931Z,99587.93
2018-12-06T00:56:49.521Z,99584.48
2018-12-06T00:59:39.750Z,99586.19
2018-12-06T01:02:48.914Z,99579.92
2018-12-06T01:05:56.499Z,99580.23
2018-12-06T01:12:36.090Z,99578.84
2018-12-06T01:15:26.438Z,99588.41
2018-12-06T01:22:04.257Z,99547.48
2018-12-06T01:25:13.404Z,99579.00
2018-12-06T01:28:22.526Z,99583.39
2018-12-06T01:31:31.664Z,99573.68
2018-12-06T01:34:40.805Z,99550.89
2018-12-06T01:37:49.936Z,99569.77
2018-12-06T01:43:53.651Z,99559.44
2018-12-06T02:04:11.934Z,99506.59
2018-12-06T02:07:02.177Z,99509.25
2018-12-06T02:22:09.671Z,99495.10
2018-12-06T02:25:13.841Z,99503.70
2018-12-06T02:28:23.028Z,99503.47
2018-12-06T02:31:13.636Z,99506.86
2018-12-06T02:37:18.833Z,99521.25
2018-12-06T02:40:28.039Z,99537.06
2018-12-06T02:43:18.325Z,99541.83
2018-12-06T02:49:10.669Z,99523.39
2018-12-06T02:55:17.183Z,99562.26
2018-12-06T02:58:26.299Z,99587.14
2018-12-06T03:01:35.717Z,99583.83
2018-12-06T03:04:25.995Z,99626.41
2018-12-06T03:07:35.175Z,99655.55
2018-12-06T03:16:56.025Z,99725.72
2018-12-06T03:19:55.316Z,99750.70
2018-12-06T03:23:02.980Z,99768.88
2018-12-06T03:26:29.303Z,99785.22
2018-12-06T03:29:38.617Z,99805.67
2018-12-06T03:32:29.304Z,99818.72
2018-12-06T03:35:19.804Z,99825.15
2018-12-06T03:38:29.283Z,99840.67
2018-12-06T03:41:20.013Z,99849.14
2018-12-06T03:44:29.172Z,99845.59
2018-12-06T03:47:19.461Z,99841.13
2018-12-06T03:53:39.768Z,99812.53
2018-12-06T03:56:48.905Z,99859.17
2018-12-06T03:59:58.145Z,99849.52
2018-12-06T04:03:07.256Z,99844.01
2018-12-06T04:06:16.361Z,99898.66
2018-12-06T04:09:29.090Z,99917.52
2018-12-06T04:12:38.272Z,99935.84
2018-12-06T04:15:28.708Z,99941.13
2018-12-06T04:18:37.886Z,99944.00
2018-12-06T04:21:46.781Z,99942.74
2018-12-06T04:24:55.947Z,99936.77
2018-12-06T04:28:05.092Z,99966.55
2018-12-06T04:38:26.185Z,99950.67
2018-12-06T04:41:35.283Z,99987.55
2018-12-06T04:44:44.409Z,100006.84
2018-12-06T04:47:54.248Z,99987.39
2018-12-06T04:51:03.404Z,100045.16
2018-12-06T04:54:12.837Z,100054.45
2018-12-06T04:57:21.972Z,100067.79
2018-12-06T05:00:12.282Z,100094.49
2018-12-06T05:03:21.553Z,100118.25
2018-12-06T05:06:30.739Z,100108.30
2018-12-06T05:09:39.615Z,100086.88
2018-12-06T05:12:29.956Z,100121.12
2018-12-06T05:15:39.195Z,100139.69
2018-12-06T05:18:48.812Z,100144.07
2018-12-06T05:21:39.130Z,100110.62
2018-12-06T05:24:29.390Z,100145.89
2018-12-06T05:27:38.566Z,100156.21
2018-12-06T05:30:27.213Z,100165.09
2018-12-06T05:36:49.584Z,100186.30
2018-12-06T05:39:58.726Z,100202.08
2018-12-06T05:42:49.579Z,100170.57
2018-12-06T05:46:15.837Z,100184.75
2018-12-06T05:49:24.969Z,100201.41
2018-12-06T05:52:34.152Z,100217.34
2018-12-06T05:55:43.366Z,100219.13
2018-12-06T05:58:30.283Z,100228.58
2018-12-06T06:01:40.012Z,100226.30
2018-12-06T06:04:49.152Z,100250.47
2018-12-06T06:15:15.037Z,100302.98
2018-12-06T06:18:24.239Z,100319.81
2018-12-06T06:21:33.382Z,100323.65
2018-12-06T06:25:03.202Z,100330.10
2018-12-06T06:28:12.623Z,100305.31
2018-12-06T06:31:21.840Z,100319.75
2018-12-06T06:34:30.754Z,100347.80
2018-12-06T06:37:21.150Z,100352.06
2018-12-06T06:40:30.519Z,100364.39
2018-12-06T06:43:39.778Z,100372.57
2018-12-06T06:53:33.658Z,100402.39
2018-12-06T06:56:23.992Z,100418.80
2018-12-06T06:59:33.116Z,100426.62
2018-12-06T07:02:42.266Z,100441.64
2018-12-06T07:05:51.415Z,100455.62
2018-12-06T07:09:00.619Z,100432.33
2018-12-06T07:12:09.772Z,100486.12
2018-12-06T07:15:18.901Z,100498.00
2018-12-06T07:18:28.025Z,100474.50
2018-12-06T07:21:37.514Z,100535.63
2018-12-06T07:24:46.688Z,100555.22
2018-12-06T07:27:37.021Z,100574.89
2018-12-06T07:30:46.267Z,100603.20
2018-12-06T07:33:55.463Z,100613.63
2018-12-06T07:37:04.652Z,100630.40
2018-12-06T07:40:13.857Z,100645.97
2018-12-06T07:43:23.158Z,100652.91
2018-12-06T07:46:32.327Z,100650.41
2018-12-06T07:49:42.030Z,100680.34
2018-12-06T07:52:51.177Z,100670.67
2018-12-06T07:59:14.731Z,100689.52
2018-12-06T08:02:05.139Z,100705.73
2018-12-06T08:04:47.487Z,100726.22
2018-12-06T08:07:56.619Z,100739.75
2018-12-06T08:11:05.739Z,100720.91
2018-12-06T08:14:14.883Z,100775.77
2018-12-06T08:17:05.528Z,100771.34
2018-12-06T08:20:14.720Z,100780.80
2018-12-06T08:23:23.839Z,100823.23
2018-12-06T08:29:26.053Z,100802.44
2018-12-06T08:32:16.292Z,100826.31
2018-12-06T08:35:46.001Z,100825.14
2018-12-06T08:38:55.564Z,100824.08
2018-12-06T08:42:05.007Z,100844.69
2018-12-06T08:45:14.155Z,100850.86
2018-12-06T08:48:23.292Z,100866.54
2018-12-06T08:51:32.441Z,100873.98
2018-12-06T08:54:41.565Z,100877.36
2018-12-06T08:57:31.792Z,100900.30
2018-12-06T09:00:22.039Z,100912.67
2018-12-06T09:03:31.128Z,100931.32
2018-12-06T09:06:40.698Z,100916.82
2018-12-06T09:09:49.853Z,100924.76
2018-12-06T09:12:58.984Z,100916.44
2018-12-06T09:16:08.104Z,100881.81
2018-12-06T09:19:17.270Z,100907.73
2018-12-06T09:22:26.388Z,100900.56
2018-12-06T09:25:35.511Z,100889.25
2018-12-06T09:28:26.115Z,100834.16
2018-12-06T09:31:35.361Z,100851.95
2018-12-06T09:34:44.506Z,100876.77
2018-12-06T09:37:53.619Z,100885.29
2018-12-06T09:41:02.819Z,100897.05
2018-12-06T09:43:53.140Z,100895.95
2018-12-06T09:46:43.369Z,100898.44
2018-12-06T09:49:52.565Z,100864.78
2018-12-06T09:53:01.680Z,100885.27
2018-12-06T09:56:10.833Z,100889.11
2018-12-06T09:59:19.969Z,100890.22
2018-12-06T10:02:29.100Z,100851.30
2018-12-06T10:08:30.509Z,100889.31
2018-12-06T10:11:39.727Z,100888.27
2018-12-06T10:14:29.957Z,100871.59
2018-12-06T10:17:39.150Z,100825.65
2018-12-06T10:20:48.564Z,100831.48
2018-12-06T10:23:39.488Z,100784.04
2018-12-06T10:26:50.361Z,100761.53
2018-12-06T10:29:59.494Z,100741.67
2018-12-06T10:33:08.642Z,100704.34
2018-12-06T10:36:17.756Z,100629.92
2018-12-06T10:42:19.950Z,100649.06
2018-12-06T10:45:10.211Z,100626.59
2018-12-06T10:48:19.360Z,100613.20
2018-12-06T10:54:40.316Z,100580.59
2018-12-06T10:57:30.691Z,100571.38
2018-12-06T11:00:39.549Z,100562.34
2018-12-06T11:04:07.238Z,100514.52
2018-12-06T11:07:16.425Z,100464.84
2018-12-06T11:10:25.565Z,100407.23
2018-12-06T11:13:34.724Z,100369.80
2018-12-06T11:20:15.906Z,100313.78
2018-12-06T11:23:06.171Z,100314.08
2018-12-06T11:26:15.331Z,100311.37
2018-12-06T11:29:05.625Z,100301.28
2018-12-06T11:32:15.074Z,100275.36
2018-12-06T11:35:05.661Z,100231.89
2018-12-06T11:37:55.931Z,100178.49
2018-12-06T11:41:05.085Z,100144.52
2018-12-06T11:44:14.508Z,100129.91
2018-12-06T11:47:23.692Z,100112.96
2018-12-06T11:50:32.883Z,100101.86
2018-12-06T11:53:42.024Z,100102.52
2018-12-06T11:56:32.284Z,100068.83
2018-12-06T11:59:41.453Z,100080.49
2018-12-06T12:02:50.328Z,100092.82
2018-12-06T12:05:59.702Z,100100.29
2018-12-06T12:09:08.868Z,100104.30
2018-12-06T12:12:18.001Z,100112.40
2018-12-06T12:15:08.660Z,100123.77
2018-12-06T12:18:17.839Z,100108.53
2018-12-06T12:21:08.117Z,100106.23
2018-12-06T12:24:17.536Z,100099.52
2018-12-06T12:27:26.698Z,100104.90
2018-12-06T12:30:16.942Z,100083.81
2018-12-06T12:33:26.130Z,100051.03
2018-12-06T12:36:16.596Z,100048.73
2018-12-06T12:39:24.389Z,100027.81
2018-12-06T12:42:14.653Z,100013.27
2018-12-06T12:45:23.846Z,100015.02
2018-12-06T12:48:32.981Z,100011.28
2018-12-06T12:51:42.121Z,100004.89
2018-12-06T12:54:51.635Z,99976.08
2018-12-06T12:57:41.934Z,99995.66
2018-12-06T13:00:43.855Z,99989.52
2018-12-06T13:03:24.636Z,99977.80
2018-12-06T13:06:15.062Z,99974.44
2018-12-06T13:09:44.651Z,99973.84
2018-12-06T13:12:35.214Z,99970.48
2018-12-06T13:15:25.971Z,99980.42
2018-12-06T13:25:39.566Z,99965.70
2018-12-06T13:28:29.775Z,99951.09
2018-12-06T13:31:56.182Z,99936.64
2018-12-06T13:35:05.339Z,99918.71
2018-12-06T13:38:14.481Z,99923.92
2018-12-06T13:41:05.376Z,99899.36
2018-12-06T13:44:14.688Z,99905.44
2018-12-06T13:47:25.580Z,99903.07
2018-12-06T13:50:34.725Z,99915.08
2018-12-06T13:53:43.845Z,99925.54
2018-12-06T13:56:34.103Z,99929.05
2018-12-06T13:59:43.277Z,99927.63
2018-12-06T14:02:52.429Z,99926.55
2018-12-06T14:06:01.878Z,99919.89
2018-12-06T14:09:10.988Z,99912.45
2018-12-06T14:12:01.263Z,99928.09
2018-12-06T14:19:05.410Z,99933.65
2018-12-06T14:22:14.583Z,99929.50
2018-12-06T14:25:05.348Z,99923.26
2018-12-06T14:27:55.584Z,99919.91
2018-12-06T14:31:04.796Z,99910.61
2018-12-06T14:34:13.915Z,99910.58
2018-12-06T14:37:04.225Z,99909.75
2018-12-06T14:40:14.256Z,99883.50
2018-12-06T14:43:23.514Z,99907.25
2018-12-06T14:46:32.680Z,99909.42
2018-12-06T14:49:42.060Z,99896.09
2018-12-06T14:52:51.212Z,99897.45
2018-12-06T14:59:14.546Z,99844.12
2018-12-06T15:02:23.761Z,99885.85
2018-12-06T15:05:14.032Z,99866.28
2018-12-06T15:08:23.215Z,99858.97
2018-12-06T15:11:32.422Z,99816.05
2018-12-06T15:14:41.623Z,99819.13
2018-12-06T15:17:50.763Z,99811.78
2018-12-06T15:20:41.074Z,99780.56
2018-12-06T15:23:50.161Z,99720.44
2018-12-06T15:26:59.318Z,99719.94
2018-12-06T15:30:08.439Z,99709.60
2018-12-06T15:33:17.590Z,99694.05
2018-12-06T15:36:27.014Z,99661.12
2018-12-06T15:39:36.474Z,99649.73
2018-12-06T15:42:26.740Z,99642.50
2018-12-06T15:45:37.695Z,99630.18
2018-12-06T15:48:27.900Z,99631.27
2018-12-06T15:51:18.285Z,99633.41
2018-12-06T15:54:08.525Z,99633.36
2018-12-06T15:57:17.649Z,99629.56
2018-12-06T16:00:48.478Z,99625.84
2018-12-06T16:03:57.569Z,99621.53
2018-12-06T16:06:47.790Z,99626.62
2018-12-06T16:09:56.976Z,99628.30
2018-12-06T16:12:47.360Z,99623.75
2018-12-06T16:15:38.020Z,99599.33
2018-12-06T16:18:47.201Z,99603.84
2018-12-06T16:21:56.298Z,99602.16
2018-12-06T16:24:46.635Z,99605.08
2018-12-06T16:28:31.833Z,99604.20
2018-12-06T16:31:21.786Z,99602.86
2018-12-06T16:34:30.934Z,99602.42
2018-12-06T16:37:40.155Z,99604.11
2018-12-06T16:40:49.282Z,99602.78
2018-12-06T16:43:40.087Z,99603.20
2018-12-06T16:46:49.221Z,99602.38
2018-12-06T16:49:58.455Z,99607.41
2018-12-06T16:53:07.583Z,99607.83
2018-12-06T16:56:16.732Z,99587.59
2018-12-06T16:59:25.604Z,99582.25
2018-12-06T17:02:34.720Z,99622.26
2018-12-06T17:05:43.934Z,99636.15
2018-12-06T17:08:53.100Z,99633.08
2018-12-06T17:12:02.271Z,99653.86
2018-12-06T17:15:11.869Z,99657.66
2018-12-06T17:18:21.071Z,99661.48
2018-12-06T17:21:30.477Z,99658.84
2018-12-06T17:24:39.628Z,99628.05
2018-12-06T17:27:27.845Z,99665.25
2018-12-06T17:30:18.198Z,99679.99
2018-12-06T17:33:27.431Z,99683.73
2018-12-06T17:36:36.566Z,99690.19
2018-12-06T17:39:45.704Z,99689.80
2018-12-06T17:42:54.917Z,99663.77
2018-12-06T17:46:04.062Z,99702.38
2018-12-06T17:49:13.780Z,99677.11
2018-12-06T17:52:22.916Z,99694.81
2018-12-06T17:55:32.045Z,99717.53
2018-12-06T17:58:41.206Z,99704.33
2018-12-06T18:01:50.332Z,99736.50
2018-12-06T18:04:59.488Z,99716.31
2018-12-06T18:08:08.617Z,99735.66
2018-12-06T18:10:59.824Z,99743.35
2018-12-06T18:14:09.239Z,99739.12
2018-12-06T18:17:18.378Z,99749.32
2018-12-06T18:21:03.640Z,99748.83
2018-12-06T18:24:18.367Z,99748.47
2018-12-06T18:27:22.672Z,99752.45
2018-12-06T18:30:30.191Z,99747.34
2018-12-06T18:33:40.180Z,99715.89
2018-12-06T18:36:30.510Z,99732.11
2018-12-06T18:39:39.639Z,99714.74
2018-12-06T18:42:30.139Z,99667.81
2018-12-06T18:45:13.582Z,99678.99
2018-12-06T18:48:04.502Z,99663.45
2018-12-06T18:51:13.714Z,99633.91
2018-12-06T18:54:22.842Z,99656.86
2018-12-06T18:57:32.256Z,99650.51
2018-12-06T19:00:41.408Z,99639.77
2018-12-06T19:03:50.553Z,99635.97
2018-12-06T19:07:23.560Z,99629.20
2018-12-06T19:10:32.754Z,99621.76
2018-12-06T19:13:42.213Z,99623.38
2018-12-06T19:16:33.035Z,99623.36
2018-12-06T19:19:23.931Z,99614.38
2018-12-06T19:22:33.048Z,99603.06
2018-12-06T19:25:23.623Z,99598.91
2018-12-06T19:31:59.569Z,99609.95
2018-12-06T19:35:09.510Z,99599.48
2018-12-06T19:38:18.940Z,99586.83
2018-12-06T19:41:09.252Z,99579.78
2018-12-06T19:44:18.470Z,99566.50
2018-12-06T19:47:27.979Z,99571.27
2018-12-06T19:50:37.143Z,99558.42
2018-12-06T19:53:46.883Z,99570.00
2018-12-06T19:56:56.030Z,99563.75
2018-12-06T19:59:46.651Z,99554.80
2018-12-06T20:02:55.868Z,99540.32
2018-12-06T20:05:46.296Z,99553.19
2018-12-06T20:08:55.490Z,99558.96
2018-12-06T20:11:45.775Z,99560.57
2018-12-06T20:14:36.026Z,99527.27
2018-12-06T20:17:26.299Z,99561.01
2018-12-06T20:21:11.583Z,99556.77
2018-12-06T20:24:21.051Z,99561.44
2018-12-06T20:27:11.351Z,99581.94
2018-12-06T20:30:20.782Z,99582.94
2018-12-06T20:33:11.681Z,99572.95
2018-12-06T20:36:01.974Z,99575.14
2018-12-06T20:39:11.163Z,99578.28
2018-12-06T20:42:01.455Z,99581.23
2018-12-06T20:45:46.673Z,99585.23
2018-12-06T20:48:55.852Z,99563.41
2018-12-06T20:52:04.740Z,99591.58
2018-12-06T20:55:13.927Z,99566.70
2018-12-06T20:58:04.296Z,99586.13
2018-12-06T21:01:13.497Z,99538.43
2018-12-06T21:04:22.958Z,99566.19
2018-12-06T21:07:32.155Z,99552.31
2018-12-06T21:10:41.388Z,99558.71
2018-12-06T21:23:59.403Z,99516.66
2018-12-06T21:30:42.155Z,99538.23
2018-12-06T21:33:32.386Z,99517.71
2018-12-06T21:37:18.165Z,99533.70
2018-12-06T21:40:27.753Z,99489.68
2018-12-06T21:47:28.261Z,99494.56
2018-12-06T21:50:37.469Z,99528.94
2018-12-06T21:53:47.567Z,99522.66
2018-12-06T21:57:17.208Z,99517.23
2018-12-06T22:00:45.903Z,99520.19
2018-12-06T22:03:55.094Z,99521.25
2018-12-06T22:07:04.210Z,99474.59
2018-12-06T22:10:13.064Z,99507.09
2018-12-06T22:13:03.343Z,99485.56
2018-12-06T22:16:12.540Z,99494.95
2018-12-06T22:19:38.707Z,99508.05
2018-12-06T22:22:29.046Z,99509.40
2018-12-06T22:26:14.715Z,99515.59
2018-12-06T22:29:23.885Z,99496.67
2018-12-06T22:32:14.421Z,99511.38
2018-12-06T22:35:23.614Z,99524.94
2018-12-06T22:38:34.320Z,99529.91
2018-12-06T22:42:01.444Z,99541.67
2018-12-06T22:45:12.263Z,99565.75
2018-12-06T22:48:21.458Z,99569.09
2018-12-06T22:51:12.203Z,99587.75
2018-12-06T22:54:57.241Z,99594.08
2018-12-06T23:05:30.613Z,99614.65
2018-12-06T23:09:00.316Z,99625.77
2018-12-06T23:11:50.606Z,99622.75
2018-12-06T23:15:00.178Z,99630.84
2018-12-06T23:17:50.551Z,99624.50
2018-12-06T23:20:40.879Z,99618.63
2018-12-06T23:23:31.132Z,99612.62
2018-12-06T23:26:40.313Z,99610.98
2018-12-06T23:29:30.561Z,99607.71
2018-12-06T23:32:39.759Z,99596.25
2018-12-06T23:35:48.992Z,99601.48
2018-12-06T23:38:39.410Z,99592.30
2018-12-06T23:42:06.043Z,99548.34
2018-12-06T23:45:15.274Z,99567.82
2018-12-06T23:48:05.676Z,99552.67
2018-12-06T23:51:36.207Z,99506.97
2018-12-06T23:54:45.706Z,99524.73
2018-12-06T23:57:53.902Z,99515.06
